sensor_id;sensor_type;location;lat;lon;timestamp;pressure;altitude;pressure_sealevel;temperature;humidity
46506;BME280;32220;49.808;9.968;2022-11-14T09:48:18;98889.06;;;7.65;100.00
46506;BME280;32220;49.808;9.968;2022-11-14T09:51:08;98900.63;;;8.29;100.00
46506;BME280;32220;49.808;9.968;2022-11-14T09:54:00;98898.31;;;8.89;94.03
46506;BME280;32220;49.808;9.968;2022-11-14T09:56:50;98891.22;;;9.37;89.68
46506;BME280;32220;49.808;9.968;2022-11-14T09:59:36;98900.59;;;9.72;86.19
46506;BME280;32220;49.808;9.968;2022-11-14T10:02:32;98911.78;;;9.92;82.21
46506;BME280;32220;49.808;9.968;2022-11-14T10:05:35;98917.22;;;10.04;80.99
46506;BME280;32220;49.808;9.968;2022-11-14T10:08:36;98929.94;;;10.14;78.94
46506;BME280;32220;49.808;9.968;2022-11-14T10:11:31;98923.63;;;10.30;78.00
46506;BME280;32220;49.808;9.968;2022-11-14T10:14:49;98930.50;;;10.63;76.79
46506;BME280;32220;49.808;9.968;2022-11-14T10:17:49;98938.22;;;10.80;75.14
46506;BME280;32220;49.808;9.968;2022-11-14T10:20:45;98937.28;;;10.95;73.80
46506;BME280;32220;49.808;9.968;2022-11-14T10:23:40;98909.16;;;11.07;73.63
46506;BME280;32220;49.808;9.968;2022-11-14T10:26:29;98924.53;;;11.29;72.51
46506;BME280;32220;49.808;9.968;2022-11-14T10:33:03;98926.41;;;11.95;70.39
46506;BME280;32220;49.808;9.968;2022-11-14T10:35:56;98937.47;;;12.14;69.31
46506;BME280;32220;49.808;9.968;2022-11-14T10:38:50;98928.25;;;12.19;69.31
46506;BME280;32220;49.808;9.968;2022-11-14T10:41:39;98941.00;;;12.27;69.19
46506;BME280;32220;49.808;9.968;2022-11-14T10:44:31;98933.69;;;13.67;67.05
46506;BME280;32220;49.808;9.968;2022-11-14T10:47:21;98953.09;;;15.19;61.17
46506;BME280;32220;49.808;9.968;2022-11-14T10:50:16;98961.16;;;16.05;58.53
46506;BME280;32220;49.808;9.968;2022-11-14T10:53:13;98971.44;;;16.41;56.10
46506;BME280;32220;49.808;9.968;2022-11-14T10:56:00;98975.44;;;16.68;53.69
46506;BME280;32220;49.808;9.968;2022-11-14T10:58:46;98966.03;;;16.21;55.02
46506;BME280;32220;49.808;9.968;2022-11-14T11:01:36;98949.03;;;15.69;55.89
46506;BME280;32220;49.808;9.968;2022-11-14T11:04:25;98929.63;;;15.44;56.04
46506;BME280;32220;49.808;9.968;2022-11-14T11:07:21;98937.91;;;16.16;54.73
46506;BME280;32220;49.808;9.968;2022-11-14T11:10:26;98952.16;;;16.79;53.07
46506;BME280;32220;49.808;9.968;2022-11-14T11:13:32;98961.22;;;16.14;52.35
46506;BME280;32220;49.808;9.968;2022-11-14T11:16:20;98947.47;;;15.55;53.71
46506;BME280;32220;49.808;9.968;2022-11-14T11:19:13;98936.88;;;15.65;54.24
46506;BME280;32220;49.808;9.968;2022-11-14T11:22:00;98948.81;;;15.38;54.58
46506;BME280;32220;49.808;9.968;2022-11-14T11:24:46;98963.34;;;16.00;53.10
46506;BME280;32220;49.808;9.968;2022-11-14T11:27:34;98958.06;;;16.83;52.08
46506;BME280;32220;49.808;9.968;2022-11-14T11:30:21;98967.16;;;17.81;49.67
46506;BME280;32220;49.808;9.968;2022-11-14T11:33:15;98995.94;;;20.93;46.09
46506;BME280;32220;49.808;9.968;2022-11-14T11:36:04;99021.09;;;23.50;40.17
46506;BME280;32220;49.808;9.968;2022-11-14T11:38:52;99035.09;;;25.08;35.91
46506;BME280;32220;49.808;9.968;2022-11-14T11:41:38;99014.03;;;26.92;34.92
46506;BME280;32220;49.808;9.968;2022-11-14T11:44:33;99023.31;;;28.55;32.69
46506;BME280;32220;49.808;9.968;2022-11-14T11:47:20;99024.91;;;30.01;30.38
46506;BME280;32220;49.808;9.968;2022-11-14T11:50:14;99038.34;;;30.79;27.19
46506;BME280;32220;49.808;9.968;2022-11-14T11:53:15;99001.75;;;27.99;30.54
46506;BME280;32220;49.808;9.968;2022-11-14T11:56:08;98992.28;;;25.48;31.74
46506;BME280;32220;49.808;9.968;2022-11-14T11:58:59;98967.00;;;23.66;34.60
46506;BME280;32220;49.808;9.968;2022-11-14T12:01:50;98957.94;;;22.39;36.95
46506;BME280;32220;49.808;9.968;2022-11-14T12:04:37;98926.81;;;21.28;39.16
46506;BME280;32220;49.808;9.968;2022-11-14T12:07:28;98925.16;;;20.49;40.20
46506;BME280;32220;49.808;9.968;2022-11-14T12:10:20;98917.63;;;19.82;41.85
46506;BME280;32220;49.808;9.968;2022-11-14T12:13:31;98908.22;;;19.23;43.42
46506;BME280;32220;49.808;9.968;2022-11-14T12:16:41;98875.44;;;18.64;44.41
46506;BME280;32220;49.808;9.968;2022-11-14T12:23:05;98882.50;;;17.50;46.50
46506;BME280;32220;49.808;9.968;2022-11-14T12:26:01;98874.13;;;17.05;47.52
46506;BME280;32220;49.808;9.968;2022-11-14T12:29:00;98867.53;;;16.78;48.38
46506;BME280;32220;49.808;9.968;2022-11-14T12:31:55;98860.19;;;16.50;49.19
46506;BME280;32220;49.808;9.968;2022-11-14T12:34:45;98855.84;;;16.79;49.38
46506;BME280;32220;49.808;9.968;2022-11-14T12:37:34;98855.97;;;16.57;49.55
46506;BME280;32220;49.808;9.968;2022-11-14T12:40:27;98853.94;;;16.40;50.34
46506;BME280;32220;49.808;9.968;2022-11-14T12:43:27;98851.81;;;16.95;49.22
46506;BME280;32220;49.808;9.968;2022-11-14T12:46:15;98848.19;;;16.65;49.68
46506;BME280;32220;49.808;9.968;2022-11-14T12:52:54;98839.31;;;16.13;51.36
46506;BME280;32220;49.808;9.968;2022-11-14T12:55:55;98811.41;;;15.86;51.76
46506;BME280;32220;49.808;9.968;2022-11-14T12:59:11;98816.44;;;15.79;52.70
46506;BME280;32220;49.808;9.968;2022-11-14T13:02:21;98810.75;;;15.40;53.58
46506;BME280;32220;49.808;9.968;2022-11-14T13:05:22;98794.06;;;15.27;53.91
46506;BME280;32220;49.808;9.968;2022-11-14T13:08:35;98797.22;;;15.32;54.71
46506;BME280;32220;49.808;9.968;2022-11-14T13:11:39;98776.72;;;15.22;54.96
46506;BME280;32220;49.808;9.968;2022-11-14T13:14:51;98792.63;;;15.23;55.81
46506;BME280;32220;49.808;9.968;2022-11-14T13:18:03;98778.63;;;14.99;55.78
46506;BME280;32220;49.808;9.968;2022-11-14T13:21:21;98781.19;;;14.89;56.51
46506;BME280;32220;49.808;9.968;2022-11-14T13:27:54;98766.19;;;14.77;57.28
46506;BME280;32220;49.808;9.968;2022-11-14T13:31:06;98758.81;;;14.81;57.73
46506;BME280;32220;49.808;9.968;2022-11-14T13:34:29;98766.50;;;15.06;57.03
46506;BME280;32220;49.808;9.968;2022-11-14T13:37:33;98771.78;;;15.17;56.60
46506;BME280;32220;49.808;9.968;2022-11-14T13:40:27;98766.69;;;15.14;56.78
46506;BME280;32220;49.808;9.968;2022-11-14T13:43:21;98730.56;;;15.10;57.15
46506;BME280;32220;49.808;9.968;2022-11-14T13:46:23;98740.16;;;15.44;57.10
46506;BME280;32220;49.808;9.968;2022-11-14T13:49:28;98753.44;;;16.28;55.20
46506;BME280;32220;49.808;9.968;2022-11-14T13:52:17;98753.66;;;16.85;53.72
46506;BME280;32220;49.808;9.968;2022-11-14T13:55:05;98760.19;;;17.41;52.80
46506;BME280;32220;49.808;9.968;2022-11-14T13:58:05;98777.84;;;18.28;50.22
46506;BME280;32220;49.808;9.968;2022-11-14T14:01:03;98782.19;;;18.76;49.17
46506;BME280;32220;49.808;9.968;2022-11-14T14:04:05;98779.34;;;19.23;49.39
46506;BME280;32220;49.808;9.968;2022-11-14T14:07:03;98776.84;;;19.57;48.27
46506;BME280;32220;49.808;9.968;2022-11-14T14:10:00;98778.69;;;19.74;47.74
46506;BME280;32220;49.808;9.968;2022-11-14T14:13:04;98765.78;;;19.60;47.43
46506;BME280;32220;49.808;9.968;2022-11-14T14:16:00;98748.50;;;18.91;48.18
46506;BME280;32220;49.808;9.968;2022-11-14T14:18:55;98765.28;;;18.56;48.91
46506;BME280;32220;49.808;9.968;2022-11-14T14:21:51;98746.91;;;17.87;49.92
46506;BME280;32220;49.808;9.968;2022-11-14T14:24:50;98756.81;;;17.29;50.86
46506;BME280;32220;49.808;9.968;2022-11-14T14:27:49;98727.72;;;16.67;51.75
46506;BME280;32220;49.808;9.968;2022-11-14T14:30:42;98734.88;;;16.26;52.73
46506;BME280;32220;49.808;9.968;2022-11-14T14:33:46;98735.78;;;15.85;53.88
46506;BME280;32220;49.808;9.968;2022-11-14T14:36:47;98718.47;;;15.59;54.90
46506;BME280;32220;49.808;9.968;2022-11-14T14:39:34;98709.84;;;15.34;56.20
46506;BME280;32220;49.808;9.968;2022-11-14T14:42:23;98704.75;;;15.10;56.78
46506;BME280;32220;49.808;9.968;2022-11-14T14:45:14;98695.69;;;14.81;57.83
46506;BME280;32220;49.808;9.968;2022-11-14T14:48:14;98695.72;;;14.70;57.96
46506;BME280;32220;49.808;9.968;2022-11-14T14:51:00;98687.88;;;14.57;58.30
46506;BME280;32220;49.808;9.968;2022-11-14T14:53:50;98691.66;;;14.44;58.72
46506;BME280;32220;49.808;9.968;2022-11-14T14:56:37;98686.91;;;14.25;59.65
46506;BME280;32220;49.808;9.968;2022-11-14T14:59:24;98690.09;;;14.08;59.53
46506;BME280;32220;49.808;9.968;2022-11-14T15:02:13;98660.56;;;13.77;60.77
46506;BME280;32220;49.808;9.968;2022-11-14T15:05:04;98671.69;;;13.71;60.97
46506;BME280;32220;49.808;9.968;2022-11-14T15:07:52;98661.25;;;13.46;61.17
46506;BME280;32220;49.808;9.968;2022-11-14T15:10:40;98675.75;;;13.42;62.52
46506;BME280;32220;49.808;9.968;2022-11-14T15:13:28;98681.38;;;13.26;62.51
46506;BME280;32220;49.808;9.968;2022-11-14T15:16:15;98671.88;;;13.11;62.45
46506;BME280;32220;49.808;9.968;2022-11-14T15:19:01;98645.34;;;12.87;62.64
46506;BME280;32220;49.808;9.968;2022-11-14T15:22:03;98665.28;;;12.81;62.72
46506;BME280;32220;49.808;9.968;2022-11-14T15:25:20;98667.47;;;12.64;62.94
46506;BME280;32220;49.808;9.968;2022-11-14T15:28:13;98660.88;;;12.45;63.60
46506;BME280;32220;49.808;9.968;2022-11-14T15:31:01;98643.97;;;12.22;64.04
46506;BME280;32220;49.808;9.968;2022-11-14T15:34:00;98654.63;;;12.10;64.20
46506;BME280;32220;49.808;9.968;2022-11-14T15:40:17;98658.78;;;11.88;66.41
46506;BME280;32220;49.808;9.968;2022-11-14T15:43:34;98668.16;;;11.81;66.33
46506;BME280;32220;49.808;9.968;2022-11-14T15:46:34;98661.97;;;11.68;66.33
46506;BME280;32220;49.808;9.968;2022-11-14T15:49:23;98675.13;;;11.57;66.27
46506;BME280;32220;49.808;9.968;2022-11-14T15:52:20;98666.88;;;11.49;66.40
46506;BME280;32220;49.808;9.968;2022-11-14T15:55:12;98665.78;;;11.39;66.00
46506;BME280;32220;49.808;9.968;2022-11-14T15:58:00;98664.19;;;11.24;66.97
46506;BME280;32220;49.808;9.968;2022-11-14T16:00:49;98677.84;;;11.18;66.57
46506;BME280;32220;49.808;9.968;2022-11-14T16:03:35;98677.00;;;11.04;66.23
46506;BME280;32220;49.808;9.968;2022-11-14T16:06:21;98673.06;;;10.97;66.96
46506;BME280;32220;49.808;9.968;2022-11-14T16:09:13;98677.81;;;10.92;67.27
46506;BME280;32220;49.808;9.968;2022-11-14T16:11:59;98687.88;;;10.87;66.70
46506;BME280;32220;49.808;9.968;2022-11-14T16:14:47;98667.69;;;10.72;66.87
46506;BME280;32220;49.808;9.968;2022-11-14T16:17:37;98680.53;;;10.78;67.22
46506;BME280;32220;49.808;9.968;2022-11-14T16:20:25;98672.03;;;10.73;67.86
46506;BME280;32220;49.808;9.968;2022-11-14T16:23:11;98677.34;;;10.73;68.24
46506;BME280;32220;49.808;9.968;2022-11-14T16:25:58;98676.59;;;10.71;68.14
46506;BME280;32220;49.808;9.968;2022-11-14T16:28:44;98678.19;;;10.73;68.67
46506;BME280;32220;49.808;9.968;2022-11-14T16:31:32;98673.94;;;10.71;68.99
46506;BME280;32220;49.808;9.968;2022-11-14T16:34:20;98681.22;;;10.67;68.87
46506;BME280;32220;49.808;9.968;2022-11-14T16:37:10;98650.59;;;10.51;68.77
46506;BME280;32220;49.808;9.968;2022-11-14T16:39:57;98681.13;;;10.69;68.97
46506;BME280;32220;49.808;9.968;2022-11-14T16:42:43;98680.75;;;10.75;68.89
46506;BME280;32220;49.808;9.968;2022-11-14T16:45:30;98687.31;;;10.82;68.70
46506;BME280;32220;49.808;9.968;2022-11-14T16:48:17;98689.56;;;10.88;68.60
46506;BME280;32220;49.808;9.968;2022-11-14T16:51:03;98690.97;;;10.94;68.16
46506;BME280;32220;49.808;9.968;2022-11-14T16:53:53;98693.50;;;10.95;68.39
46506;BME280;32220;49.808;9.968;2022-11-14T16:56:39;98703.25;;;10.95;68.45
46506;BME280;32220;49.808;9.968;2022-11-14T16:59:27;98696.78;;;10.86;68.31
46506;BME280;32220;49.808;9.968;2022-11-14T17:02:14;98686.91;;;10.75;68.77
46506;BME280;32220;49.808;9.968;2022-11-14T17:05:01;98690.88;;;10.68;69.17
46506;BME280;32220;49.808;9.968;2022-11-14T17:07:48;98678.34;;;10.58;69.35
46506;BME280;32220;49.808;9.968;2022-11-14T17:10:38;98687.53;;;10.52;69.52
46506;BME280;32220;49.808;9.968;2022-11-14T17:13:27;98679.44;;;10.41;70.32
46506;BME280;32220;49.808;9.968;2022-11-14T17:16:15;98687.97;;;10.32;70.54
46506;BME280;32220;49.808;9.968;2022-11-14T17:19:01;98691.13;;;10.24;70.48
46506;BME280;32220;49.808;9.968;2022-11-14T17:21:49;98687.19;;;10.16;71.40
46506;BME280;32220;49.808;9.968;2022-11-14T17:24:35;98689.94;;;10.14;72.02
46506;BME280;32220;49.808;9.968;2022-11-14T17:27:21;98690.91;;;10.13;72.45
46506;BME280;32220;49.808;9.968;2022-11-14T17:30:10;98691.88;;;10.12;72.67
46506;BME280;32220;49.808;9.968;2022-11-14T17:32:56;98694.28;;;10.15;73.42
46506;BME280;32220;49.808;9.968;2022-11-14T17:35:42;98687.06;;;10.19;73.71
46506;BME280;32220;49.808;9.968;2022-11-14T17:38:32;98682.50;;;10.21;73.36
46506;BME280;32220;49.808;9.968;2022-11-14T17:41:18;98692.59;;;10.28;72.88
46506;BME280;32220;49.808;9.968;2022-11-14T17:44:05;98695.81;;;10.33;73.41
46506;BME280;32220;49.808;9.968;2022-11-14T17:46:53;98680.31;;;10.27;72.93
46506;BME280;32220;49.808;9.968;2022-11-14T17:49:39;98692.28;;;10.47;72.93
46506;BME280;32220;49.808;9.968;2022-11-14T17:52:25;98685.53;;;10.56;74.13
46506;BME280;32220;49.808;9.968;2022-11-14T17:55:13;98690.31;;;10.63;74.06
46506;BME280;32220;49.808;9.968;2022-11-14T17:57:59;98691.53;;;10.72;74.41
46506;BME280;32220;49.808;9.968;2022-11-14T18:00:48;98673.84;;;10.72;74.19
46506;BME280;32220;49.808;9.968;2022-11-14T18:03:35;98694.34;;;10.96;74.46
46506;BME280;32220;49.808;9.968;2022-11-14T18:06:22;98696.47;;;11.03;74.18
46506;BME280;32220;49.808;9.968;2022-11-14T18:09:09;98697.38;;;11.16;74.08
46506;BME280;32220;49.808;9.968;2022-11-14T18:11:56;98693.38;;;11.24;73.95
46506;BME280;32220;49.808;9.968;2022-11-14T18:14:42;98699.72;;;11.34;73.47
46506;BME280;32220;49.808;9.968;2022-11-14T18:17:29;98696.66;;;11.40;73.92
46506;BME280;32220;49.808;9.968;2022-11-14T18:20:15;98695.28;;;11.47;73.76
46506;BME280;32220;49.808;9.968;2022-11-14T18:23:01;98697.50;;;11.53;73.53
46506;BME280;32220;49.808;9.968;2022-11-14T18:25:47;98696.56;;;11.54;73.70
46506;BME280;32220;49.808;9.968;2022-11-14T18:28:35;98705.25;;;11.56;73.66
46506;BME280;32220;49.808;9.968;2022-11-14T18:31:22;98695.28;;;11.60;73.65
46506;BME280;32220;49.808;9.968;2022-11-14T18:34:08;98703.16;;;11.61;74.03
46506;BME280;32220;49.808;9.968;2022-11-14T18:36:54;98697.41;;;11.67;74.28
46506;BME280;32220;49.808;9.968;2022-11-14T18:39:41;98688.09;;;11.74;73.99
46506;BME280;32220;49.808;9.968;2022-11-14T18:42:27;98677.47;;;11.74;74.54
46506;BME280;32220;49.808;9.968;2022-11-14T18:45:15;98680.03;;;11.76;74.69
46506;BME280;32220;49.808;9.968;2022-11-14T18:48:01;98680.97;;;11.87;74.25
46506;BME280;32220;49.808;9.968;2022-11-14T18:50:47;98684.91;;;11.95;73.95
46506;BME280;32220;49.808;9.968;2022-11-14T18:53:34;98682.75;;;12.00;73.37
46506;BME280;32220;49.808;9.968;2022-11-14T18:56:22;98681.47;;;12.05;72.51
46506;BME280;32220;49.808;9.968;2022-11-14T18:59:09;98671.88;;;12.15;72.22
46506;BME280;32220;49.808;9.968;2022-11-14T19:01:56;98689.28;;;12.32;71.98
46506;BME280;32220;49.808;9.968;2022-11-14T19:04:43;98691.56;;;12.37;72.50
46506;BME280;32220;49.808;9.968;2022-11-14T19:07:30;98692.22;;;12.40;71.78
46506;BME280;32220;49.808;9.968;2022-11-14T19:10:15;98693.69;;;12.44;71.80
46506;BME280;32220;49.808;9.968;2022-11-14T19:13:02;98681.69;;;12.39;71.48
46506;BME280;32220;49.808;9.968;2022-11-14T19:15:49;98697.13;;;12.34;71.70
46506;BME280;32220;49.808;9.968;2022-11-14T19:18:37;98693.31;;;12.25;71.97
46506;BME280;32220;49.808;9.968;2022-11-14T19:21:24;98693.47;;;12.11;72.07
46506;BME280;32220;49.808;9.968;2022-11-14T19:24:11;98695.06;;;12.01;72.03
46506;BME280;32220;49.808;9.968;2022-11-14T19:26:57;98691.38;;;11.91;72.11
46506;BME280;32220;49.808;9.968;2022-11-14T19:29:43;98695.31;;;11.85;72.22
46506;BME280;32220;49.808;9.968;2022-11-14T19:32:30;98702.94;;;11.77;72.38
46506;BME280;32220;49.808;9.968;2022-11-14T19:35:18;98711.63;;;11.66;72.69
